Terminal Aerodrome Forecast
Issued by NWS

Home | Current Version | Previous Version | Text Only | Print | Product List | Glossary On
Versions: 1 2 3 4 5 6 7 8 9 10 11 12 13 14 15 16 17
000
FTAK31 PAFA 240652 AAA
TAFABT
TAF AMD
PABT 240652Z 2407/2506 03005KT 1SM -SN BR VV013
     FM241300 11010KT 1/2SM SN FG OVC007
     FM250000 20005KT 1 1/2SM -SHSN BR OVC015=

USA.gov is the U.S. government's official web portal to all federal, state and local government web resources and services.